Time;durP1;ratioP1;P1;durP2;ratioP2;P2;SDS_P1;SDS_P2;PMS_P1;PMS_P2;Temp;Humidity;BMP_temperature;BMP_pressure;BME280_temperature;BME280_humidity;BME280_pressure;Samples;Min_cycle;Max_cycle;Signal;HPM_P1;HPM_P2
2023/11/29 00:01:31;;;;;;;6.10;5.25;;;2.20;99.90;;;;;;5083222;28;20130;-37
2023/11/29 00:03:57;;;;;;;7.28;6.28;;;2.20;99.90;;;;;;5083002;28;20028;-37
2023/11/29 00:06:22;;;;;;;6.47;5.35;;;2.20;99.90;;;;;;5083273;28;20039;-37
2023/11/29 00:08:48;;;;;;;7.72;6.68;;;2.20;99.90;;;;;;5082644;28;20092;-37
2023/11/29 00:11:13;;;;;;;7.00;5.78;;;2.30;99.90;;;;;;5084244;28;20034;-37
2023/11/29 00:13:39;;;;;;;7.72;6.93;;;2.30;99.90;;;;;;5083512;28;20475;-41
2023/11/29 00:16:05;;;;;;;7.90;6.50;;;2.30;99.90;;;;;;5082966;28;20114;-38
2023/11/29 00:18:31;;;;;;;8.55;6.80;;;2.30;99.90;;;;;;5083105;28;20036;-37
2023/11/29 00:21:00;;;;;;;7.05;6.35;;;2.30;99.90;;;;;;5082523;28;20058;-38
2023/11/29 00:23:26;;;;;;;7.53;6.70;;;2.30;99.90;;;;;;5082015;28;20020;-36
2023/11/29 00:25:51;;;;;;;7.45;6.32;;;2.40;99.90;;;;;;5082971;28;20024;-37
2023/11/29 00:28:17;;;;;;;6.40;5.80;;;2.30;99.90;;;;;;5083018;28;20111;-38
2023/11/29 00:30:42;;;;;;;8.40;6.85;;;2.40;99.90;;;;;;5082583;28;20039;-37
2023/11/29 00:33:08;;;;;;;8.88;6.50;;;2.30;99.90;;;;;;5083239;28;20384;-38
2023/11/29 00:35:37;;;;;;;7.70;6.38;;;2.30;99.90;;;;;;5084088;28;20742;-36
2023/11/29 00:38:05;;;;;;;6.70;5.80;;;2.30;99.90;;;;;;5082717;28;20050;-37
2023/11/29 00:40:31;;;;;;;7.43;6.63;;;2.30;99.90;;;;;;5083780;28;20058;-36
2023/11/29 00:42:56;;;;;;;8.23;5.82;;;2.30;99.90;;;;;;5083573;28;20471;-37
2023/11/29 00:45:22;;;;;;;7.28;6.38;;;2.30;99.90;;;;;;5082265;28;20035;-38
2023/11/29 00:47:49;;;;;;;6.85;6.13;;;2.30;99.90;;;;;;5082736;28;20503;-47
2023/11/29 00:50:15;;;;;;;8.48;5.82;;;2.40;99.90;;;;;;5082963;28;20608;-38
2023/11/29 00:52:40;;;;;;;6.88;5.25;;;2.40;99.90;;;;;;5081520;28;20024;-38
2023/11/29 00:55:06;;;;;;;5.35;4.85;;;2.40;99.90;;;;;;5082018;28;20891;-37
2023/11/29 00:57:32;;;;;;;5.13;4.63;;;2.40;99.90;;;;;;5083002;28;20081;-37
2023/11/29 00:59:57;;;;;;;5.63;4.10;;;2.50;99.90;;;;;;5081043;28;20130;-37
2023/11/29 01:02:23;;;;;;;5.38;4.00;;;2.50;99.90;;;;;;5082350;28;20019;-38
2023/11/29 01:04:48;;;;;;;5.60;4.55;;;2.60;99.90;;;;;;5081498;28;20469;-37
2023/11/29 01:07:14;;;;;;;4.82;3.90;;;2.60;99.90;;;;;;5082650;28;20024;-37
2023/11/29 01:09:40;;;;;;;4.70;3.50;;;2.60;99.90;;;;;;5081680;28;20027;-38
2023/11/29 01:12:06;;;;;;;4.10;3.70;;;2.60;99.90;;;;;;5081328;28;20058;-37
2023/11/29 01:14:31;;;;;;;5.38;3.70;;;2.60;99.90;;;;;;5082714;28;20131;-38
2023/11/29 01:16:57;;;;;;;4.00;3.65;;;2.60;99.90;;;;;;5081978;28;20024;-38
2023/11/29 01:19:23;;;;;;;5.80;4.68;;;2.60;99.90;;;;;;5081503;28;20020;-37
2023/11/29 01:21:50;;;;;;;5.95;5.10;;;2.60;99.90;;;;;;5082016;28;20055;-38
2023/11/29 01:24:15;;;;;;;5.78;5.18;;;2.60;99.90;;;;;;5082093;28;20103;-38
2023/11/29 01:26:41;;;;;;;5.80;5.25;;;2.60;99.90;;;;;;5081442;28;20027;-37
2023/11/29 01:29:07;;;;;;;6.22;5.63;;;2.60;99.90;;;;;;5082331;28;20479;-37
2023/11/29 01:31:32;;;;;;;5.68;5.18;;;2.60;99.90;;;;;;5082229;28;20050;-37
2023/11/29 01:33:58;;;;;;;7.90;6.90;;;2.60;99.90;;;;;;5081357;28;20031;-38
2023/11/29 01:36:24;;;;;;;9.35;7.95;;;2.60;99.90;;;;;;5081648;28;20059;-37
2023/11/29 01:38:52;;;;;;;8.80;7.90;;;2.60;99.90;;;;;;5081487;28;20016;-39
2023/11/29 01:41:18;;;;;;;8.93;7.93;;;2.60;99.90;;;;;;5081361;28;20502;-37
2023/11/29 01:43:44;;;;;;;8.35;7.55;;;2.60;99.90;;;;;;5081317;28;20024;-36
2023/11/29 01:46:09;;;;;;;7.60;6.80;;;2.60;99.90;;;;;;5081004;28;20036;-36
2023/11/29 01:48:39;;;;;;;7.22;6.53;;;2.60;99.90;;;;;;5080814;28;20143;-37
2023/11/29 01:51:05;;;;;;;5.97;5.45;;;2.60;99.90;;;;;;5081293;28;20051;-36
2023/11/29 01:53:31;;;;;;;5.82;5.22;;;2.60;99.90;;;;;;5081521;28;20151;-36
2023/11/29 01:55:57;;;;;;;5.63;5.03;;;2.70;99.90;;;;;;5080740;28;20097;-36
2023/11/29 01:58:25;;;;;;;5.63;4.18;;;2.70;99.90;;;;;;5081941;28;20020;-36
2023/11/29 02:00:51;;;;;;;4.60;4.20;;;2.80;99.90;;;;;;5080850;28;20111;-36
2023/11/29 02:03:20;;;;;;;4.25;3.85;;;2.80;99.90;;;;;;5070146;28;20024;-37
2023/11/29 02:05:47;;;;;;;4.07;3.75;;;2.80;99.90;;;;;;5080992;28;20666;-36
2023/11/29 02:08:13;;;;;;;4.45;3.97;;;2.90;99.90;;;;;;5080204;28;20020;-36
2023/11/29 02:10:39;;;;;;;3.95;3.20;;;2.90;99.90;;;;;;5080603;28;20031;-36
2023/11/29 02:13:05;;;;;;;4.20;3.63;;;2.90;99.90;;;;;;5080954;28;20024;-35
2023/11/29 02:15:31;;;;;;;5.00;4.50;;;2.90;99.90;;;;;;5080124;28;20038;-36
2023/11/29 02:17:56;;;;;;;4.40;4.00;;;2.90;99.90;;;;;;5080593;28;20024;-38
2023/11/29 02:20:24;;;;;;;4.20;3.80;;;2.90;99.90;;;;;;5081776;28;20040;-36
2023/11/29 02:22:59;;;;;;;4.63;4.22;;;2.90;99.90;;;;;;5079758;28;20104;-42
2023/11/29 02:25:25;;;;;;;4.93;4.22;;;2.90;99.90;;;;;;5060795;28;20037;-36
2023/11/29 02:27:50;;;;;;;4.50;4.10;;;2.90;99.90;;;;;;5075049;28;20024;-36
2023/11/29 02:30:16;;;;;;;5.28;4.78;;;2.90;99.90;;;;;;5081266;28;20050;-36
2023/11/29 02:32:41;;;;;;;5.82;5.20;;;2.90;99.90;;;;;;5080899;28;20075;-37
2023/11/29 02:35:07;;;;;;;5.22;4.72;;;2.90;99.90;;;;;;5081741;28;20074;-37
2023/11/29 02:37:33;;;;;;;4.65;4.25;;;2.90;99.90;;;;;;5080736;28;20490;-37
2023/11/29 02:40:06;;;;;;;6.00;5.40;;;2.90;99.90;;;;;;5080829;28;20072;-37
2023/11/29 02:42:31;;;;;;;5.05;4.65;;;2.90;99.90;;;;;;5080699;28;20058;-37
2023/11/29 02:44:57;;;;;;;4.95;4.53;;;2.90;99.90;;;;;;5080249;28;20032;-38
2023/11/29 02:47:23;;;;;;;4.38;3.97;;;2.80;99.90;;;;;;5081068;28;20024;-37
2023/11/29 02:49:48;;;;;;;4.38;3.97;;;2.90;99.90;;;;;;5080625;28;20051;-36
2023/11/29 02:52:14;;;;;;;4.35;3.95;;;2.80;99.90;;;;;;5080577;28;20089;-39
2023/11/29 02:54:40;;;;;;;4.85;4.15;;;2.90;99.90;;;;;;5079491;28;20048;-36
2023/11/29 02:57:05;;;;;;;4.63;4.05;;;2.90;99.90;;;;;;5079649;28;20869;-37
2023/11/29 02:59:31;;;;;;;5.30;4.72;;;2.90;99.90;;;;;;5078889;28;20028;-37
2023/11/29 03:01:56;;;;;;;4.45;4.05;;;2.90;99.90;;;;;;5078910;28;20197;-36
2023/11/29 03:04:22;;;;;;;4.43;4.03;;;2.90;99.90;;;;;;5079176;28;20035;-36
2023/11/29 03:06:51;;;;;;;4.13;3.83;;;2.90;99.90;;;;;;5080060;28;20092;-37
2023/11/29 03:09:16;;;;;;;4.82;4.32;;;2.90;99.90;;;;;;5079792;28;20024;-36
2023/11/29 03:11:42;;;;;;;5.07;4.60;;;2.90;99.90;;;;;;5078654;28;20035;-36
2023/11/29 03:14:10;;;;;;;5.05;4.65;;;2.90;99.90;;;;;;5079020;28;20024;-36
2023/11/29 03:16:36;;;;;;;5.80;5.20;;;2.90;99.90;;;;;;5079779;28;20463;-37
2023/11/29 03:19:01;;;;;;;6.22;4.85;;;2.90;99.90;;;;;;5077824;28;20084;-37
2023/11/29 03:21:28;;;;;;;5.40;4.97;;;2.90;99.90;;;;;;5079397;28;20024;-37
2023/11/29 03:23:54;;;;;;;5.90;5.38;;;2.90;99.90;;;;;;5078591;28;20103;-37
2023/11/29 03:26:20;;;;;;;5.00;4.30;;;2.90;99.90;;;;;;5077419;28;20028;-37
2023/11/29 03:28:54;;;;;;;5.15;4.65;;;2.90;99.90;;;;;;5078535;28;20032;-37
2023/11/29 03:31:20;;;;;;;5.38;4.80;;;3.00;99.90;;;;;;5068861;28;20379;-37
2023/11/29 03:33:46;;;;;;;5.30;4.80;;;3.00;99.90;;;;;;5078074;28;20574;-37
2023/11/29 03:36:11;;;;;;;5.53;4.95;;;3.00;99.90;;;;;;5078418;28;20090;-37
2023/11/29 03:38:37;;;;;;;6.85;6.15;;;3.00;99.90;;;;;;5078830;28;20079;-37
2023/11/29 03:41:02;;;;;;;9.77;7.72;;;3.00;99.90;;;;;;5077794;28;20127;-37
2023/11/29 03:43:28;;;;;;;7.82;6.95;;;3.00;99.90;;;;;;5079074;28;20107;-37
2023/11/29 03:45:53;;;;;;;7.78;6.97;;;3.00;99.90;;;;;;5078585;28;20055;-37
2023/11/29 03:48:19;;;;;;;8.35;7.45;;;3.00;99.90;;;;;;5078935;28;20020;-37
2023/11/29 03:50:45;;;;;;;8.35;7.50;;;3.00;99.90;;;;;;5078620;28;20024;-37
2023/11/29 03:53:11;;;;;;;7.57;6.88;;;3.00;99.90;;;;;;5042629;28;1043894;-37
2023/11/29 03:55:36;;;;;;;8.23;7.43;;;2.90;99.90;;;;;;5078749;28;20339;-37
2023/11/29 03:58:03;;;;;;;7.93;7.22;;;2.90;99.90;;;;;;5079024;28;20073;-37
2023/11/29 04:00:28;;;;;;;7.53;6.72;;;2.80;99.90;;;;;;5079547;28;20039;-37
2023/11/29 04:02:54;;;;;;;7.40;6.70;;;2.80;99.90;;;;;;5079396;28;20024;-37
2023/11/29 04:05:19;;;;;;;8.82;7.20;;;2.80;99.90;;;;;;5079547;28;20027;-37
2023/11/29 04:07:45;;;;;;;8.63;7.82;;;2.80;99.90;;;;;;5079372;28;20149;-37
2023/11/29 04:10:10;;;;;;;8.25;7.45;;;2.80;99.90;;;;;;5079420;28;20020;-37
2023/11/29 04:12:36;;;;;;;7.93;7.13;;;2.80;99.90;;;;;;5079585;28;20032;-37
2023/11/29 04:15:02;;;;;;;7.53;6.82;;;2.90;99.90;;;;;;5078869;28;20596;-37
2023/11/29 04:17:27;;;;;;;10.20;7.90;;;2.90;99.90;;;;;;5079571;28;20092;-37
2023/11/29 04:19:53;;;;;;;8.30;7.50;;;2.90;99.90;;;;;;5078736;28;20040;-37
2023/11/29 04:22:18;;;;;;;9.57;8.05;;;2.80;99.90;;;;;;5078798;28;20035;-38
2023/11/29 04:24:44;;;;;;;8.70;7.82;;;2.80;99.90;;;;;;5078882;28;20040;-37
2023/11/29 04:27:09;;;;;;;7.40;6.70;;;2.80;99.90;;;;;;5078843;28;20029;-37
2023/11/29 04:29:36;;;;;;;7.93;7.13;;;2.80;99.90;;;;;;5079371;28;20028;-37
2023/11/29 04:32:02;;;;;;;7.93;7.13;;;2.80;99.90;;;;;;5078382;28;20075;-37
2023/11/29 04:34:27;;;;;;;9.18;7.95;;;2.80;99.90;;;;;;5079799;28;20213;-37
2023/11/29 04:36:53;;;;;;;8.00;7.20;;;2.80;99.90;;;;;;5078446;28;20032;-37
2023/11/29 04:39:19;;;;;;;8.07;7.03;;;2.80;99.90;;;;;;5081696;28;20032;-37
2023/11/29 04:41:47;;;;;;;7.20;6.50;;;2.80;99.90;;;;;;5083098;28;20027;-37
2023/11/29 04:44:14;;;;;;;7.32;6.50;;;2.80;99.90;;;;;;5082221;28;20036;-37
2023/11/29 04:46:39;;;;;;;6.15;5.50;;;2.90;99.90;;;;;;5081847;28;20516;-39
2023/11/29 04:49:05;;;;;;;6.60;5.93;;;2.90;99.90;;;;;;5082626;28;20024;-37
2023/11/29 04:51:31;;;;;;;6.80;5.55;;;2.90;99.90;;;;;;5081409;28;20084;-37
2023/11/29 04:53:56;;;;;;;5.55;5.05;;;3.00;99.90;;;;;;5082008;28;20052;-37
2023/11/29 04:56:23;;;;;;;6.93;6.10;;;3.00;99.90;;;;;;5083490;28;20046;-37
2023/11/29 04:58:48;;;;;;;5.50;5.00;;;3.00;99.90;;;;;;5082342;28;20059;-36
2023/11/29 05:01:14;;;;;;;5.53;4.93;;;3.10;99.90;;;;;;5083435;28;20128;-37
2023/11/29 05:03:43;;;;;;;5.97;5.40;;;3.00;99.90;;;;;;5082357;28;20099;-38
2023/11/29 05:06:10;;;;;;;7.45;5.40;;;3.00;99.90;;;;;;5081774;28;20068;-38
2023/11/29 05:08:36;;;;;;;5.53;4.95;;;3.00;99.90;;;;;;5082158;28;20123;-36
2023/11/29 05:11:07;;;;;;;5.28;4.70;;;3.00;99.90;;;;;;5081879;28;20020;-39
2023/11/29 05:13:34;;;;;;;5.00;4.50;;;2.90;99.90;;;;;;5082450;28;20016;-38
2023/11/29 05:16:00;;;;;;;4.88;4.38;;;3.00;99.90;;;;;;5082066;28;20202;-36
2023/11/29 05:18:26;;;;;;;4.75;4.28;;;3.00;99.90;;;;;;5081940;28;20028;-40
2023/11/29 05:20:52;;;;;;;5.82;4.88;;;3.00;99.90;;;;;;5081711;28;20036;-37
2023/11/29 05:23:18;;;;;;;7.30;5.40;;;3.10;99.90;;;;;;5081873;28;20032;-38
2023/11/29 05:25:43;;;;;;;5.80;4.78;;;3.10;99.90;;;;;;5081815;28;20101;-37
2023/11/29 05:28:09;;;;;;;7.18;4.63;;;3.10;99.90;;;;;;5081436;28;20359;-37
2023/11/29 05:30:35;;;;;;;7.50;5.13;;;3.10;99.90;;;;;;5081835;28;20036;-37
2023/11/29 05:33:03;;;;;;;6.38;4.53;;;3.20;99.90;;;;;;5080248;28;20020;-37
2023/11/29 05:35:32;;;;;;;4.85;4.22;;;3.20;99.90;;;;;;5081271;28;20028;-37
2023/11/29 05:37:57;;;;;;;4.75;3.95;;;3.20;99.90;;;;;;5081786;28;20020;-42
2023/11/29 05:40:23;;;;;;;4.50;4.10;;;3.30;99.90;;;;;;5081685;28;20075;-36
2023/11/29 05:42:48;;;;;;;4.28;3.88;;;3.30;99.90;;;;;;5081401;28;20073;-37
2023/11/29 05:45:14;;;;;;;4.50;3.75;;;3.20;99.90;;;;;;5082351;28;20020;-36
2023/11/29 05:47:39;;;;;;;5.03;3.78;;;3.30;99.90;;;;;;5080838;28;20050;-37
2023/11/29 05:50:06;;;;;;;4.75;3.25;;;3.30;99.90;;;;;;5080347;28;20043;-37
2023/11/29 05:52:32;;;;;;;4.28;3.20;;;3.40;99.90;;;;;;5081953;28;20060;-37
2023/11/29 05:55:00;;;;;;;5.63;3.67;;;3.40;99.90;;;;;;5068060;28;20058;-38
2023/11/29 05:57:26;;;;;;;5.30;3.65;;;3.40;99.90;;;;;;5042494;28;20024;-36
2023/11/29 05:59:55;;;;;;;4.80;4.15;;;3.40;99.90;;;;;;5065431;28;20042;-37
2023/11/29 06:02:21;;;;;;;4.53;4.13;;;3.40;99.90;;;;;;5062430;28;20056;-37
2023/11/29 06:04:46;;;;;;;4.82;4.30;;;3.40;99.90;;;;;;5068304;28;20119;-37
2023/11/29 06:07:12;;;;;;;5.30;4.28;;;3.40;99.90;;;;;;5065225;28;20052;-40
2023/11/29 06:09:39;;;;;;;6.93;4.78;;;3.40;99.90;;;;;;5066650;28;20024;-37
2023/11/29 06:12:05;;;;;;;4.20;3.80;;;3.40;99.90;;;;;;5068275;28;20044;-36
2023/11/29 06:14:31;;;;;;;4.65;4.22;;;3.40;99.90;;;;;;5062687;28;20035;-39
2023/11/29 06:16:57;;;;;;;5.45;4.28;;;3.40;99.90;;;;;;5070276;28;20031;-36
2023/11/29 06:19:22;;;;;;;3.70;3.40;;;3.40;99.90;;;;;;5078993;28;20783;-36
2023/11/29 06:21:48;;;;;;;4.18;3.55;;;3.40;99.90;;;;;;5068915;28;21088;-36
2023/11/29 06:24:14;;;;;;;4.22;3.58;;;3.50;99.90;;;;;;5079140;28;20063;-36
2023/11/29 06:26:40;;;;;;;4.20;3.30;;;3.40;99.90;;;;;;5069568;28;20027;-37
2023/11/29 06:29:09;;;;;;;3.28;2.78;;;3.40;99.90;;;;;;5080066;28;20024;-37
2023/11/29 06:31:36;;;;;;;5.07;2.70;;;3.40;99.90;;;;;;5068020;28;20027;-36
2023/11/29 06:34:05;;;;;;;2.80;2.13;;;3.50;99.90;;;;;;5080214;28;20060;-36
2023/11/29 06:36:37;;;;;;;2.10;1.90;;;3.50;99.90;;;;;;5067033;28;20033;-36
2023/11/29 06:39:02;;;;;;;3.20;1.80;;;3.40;99.90;;;;;;5079330;28;20052;-36
2023/11/29 06:41:28;;;;;;;3.25;1.88;;;3.40;99.90;;;;;;5067525;28;20116;-36
2023/11/29 06:43:54;;;;;;;4.68;1.58;;;3.50;99.90;;;;;;5077733;28;20032;-36
2023/11/29 06:46:21;;;;;;;2.92;1.10;;;3.50;99.90;;;;;;5070563;28;20029;-36
2023/11/29 06:48:47;;;;;;;3.58;1.20;;;3.50;99.90;;;;;;5076541;28;20039;-37
2023/11/29 06:51:13;;;;;;;1.77;1.10;;;3.50;99.90;;;;;;5072445;28;20028;-37
2023/11/29 06:53:38;;;;;;;1.48;1.02;;;3.50;99.90;;;;;;5074109;28;20047;-37
2023/11/29 06:56:07;;;;;;;0.90;0.90;;;3.50;99.90;;;;;;5074674;28;20048;-35
2023/11/29 06:58:33;;;;;;;1.80;0.93;;;3.50;99.90;;;;;;5071485;28;20111;-36
2023/11/29 07:00:58;;;;;;;2.15;0.80;;;3.50;99.90;;;;;;5076151;28;20036;-36
2023/11/29 07:03:27;;;;;;;1.50;0.75;;;3.50;99.90;;;;;;5068551;28;20038;-36
2023/11/29 07:05:56;;;;;;;1.55;0.60;;;3.50;99.90;;;;;;5077610;28;20102;-36
2023/11/29 07:08:22;;;;;;;1.92;0.60;;;3.50;99.90;;;;;;5067849;28;20513;-36
2023/11/29 07:10:48;;;;;;;1.08;0.55;;;3.50;99.90;;;;;;5076367;28;20020;-35
2023/11/29 07:13:13;;;;;;;1.95;0.63;;;3.50;99.90;;;;;;5067987;28;20607;-36
2023/11/29 07:15:39;;;;;;;0.82;0.60;;;3.50;99.90;;;;;;5079535;28;20032;-36
2023/11/29 07:18:05;;;;;;;1.67;1.02;;;3.40;99.90;;;;;;5065475;28;20033;-35
2023/11/29 07:20:31;;;;;;;3.25;0.63;;;3.40;99.90;;;;;;5080927;28;20035;-35
2023/11/29 07:22:56;;;;;;;1.42;0.70;;;3.40;99.90;;;;;;5067060;28;20502;-36
2023/11/29 07:25:22;;;;;;;1.63;0.68;;;3.50;99.90;;;;;;5079230;28;20032;-35
2023/11/29 07:27:47;;;;;;;1.35;0.73;;;3.50;99.90;;;;;;5069042;28;20021;-36
2023/11/29 07:30:13;;;;;;;3.00;0.70;;;3.50;99.90;;;;;;5077308;28;20434;-37
2023/11/29 07:32:39;;;;;;;1.30;0.63;;;3.60;99.90;;;;;;5070404;28;20040;-37
2023/11/29 07:35:05;;;;;;;1.02;0.60;;;3.60;99.90;;;;;;5074544;28;20039;-36
2023/11/29 07:37:31;;;;;;;1.65;0.68;;;3.60;99.90;;;;;;5074373;28;20021;-36
2023/11/29 07:39:56;;;;;;;0.95;0.50;;;3.60;99.90;;;;;;5070950;28;20387;-42
2023/11/29 07:42:23;;;;;;;1.17;0.88;;;3.70;99.90;;;;;;5077277;28;20095;-36
2023/11/29 07:44:49;;;;;;;2.22;0.65;;;3.60;99.90;;;;;;5068696;28;20030;-37
2023/11/29 07:47:14;;;;;;;1.13;0.70;;;3.60;99.90;;;;;;5078093;28;20017;-37
2023/11/29 07:49:40;;;;;;;1.42;0.65;;;3.60;99.90;;;;;;5067935;28;20016;-37
2023/11/29 07:52:08;;;;;;;1.73;0.80;;;3.60;99.90;;;;;;5078353;28;20020;-36
2023/11/29 07:54:34;;;;;;;1.08;0.63;;;3.50;99.90;;;;;;5075585;28;20051;-36
2023/11/29 07:56:59;;;;;;;0.98;0.68;;;3.50;99.90;;;;;;5079291;28;20395;-36
2023/11/29 07:59:26;;;;;;;0.80;0.70;;;3.40;99.90;;;;;;5080031;28;20070;-36
2023/11/29 08:01:52;;;;;;;0.85;0.50;;;3.40;99.90;;;;;;5079092;28;20043;-37
2023/11/29 08:04:17;;;;;;;1.48;0.80;;;3.40;99.90;;;;;;5080085;28;20024;-37
2023/11/29 08:06:43;;;;;;;1.95;1.13;;;3.40;99.90;;;;;;5078980;28;20623;-36
2023/11/29 08:09:08;;;;;;;1.88;0.80;;;3.50;99.90;;;;;;5079762;28;20767;-36
2023/11/29 08:11:34;;;;;;;0.95;0.73;;;3.50;99.90;;;;;;5079763;28;20057;-35
2023/11/29 08:14:03;;;;;;;1.50;0.75;;;3.50;99.90;;;;;;5081561;28;20020;-37
2023/11/29 08:16:29;;;;;;;1.67;1.02;;;3.70;99.90;;;;;;5084463;28;20028;-38
2023/11/29 08:18:55;;;;;;;1.08;0.88;;;3.80;99.90;;;;;;5082933;28;20027;-37
2023/11/29 08:21:21;;;;;;;1.25;0.85;;;3.80;99.90;;;;;;5083337;28;20552;-37
2023/11/29 08:23:46;;;;;;;1.58;1.08;;;3.90;99.90;;;;;;5083094;28;20023;-38
2023/11/29 08:26:12;;;;;;;2.38;1.27;;;4.00;99.90;;;;;;5083245;28;20028;-37
2023/11/29 08:28:37;;;;;;;1.70;1.10;;;4.00;99.90;;;;;;5083152;28;20184;-37
2023/11/29 08:31:03;;;;;;;3.42;1.20;;;4.00;99.90;;;;;;5082805;28;20105;-37
2023/11/29 08:33:30;;;;;;;2.60;1.13;;;4.00;99.90;;;;;;5083516;28;20673;-37
2023/11/29 08:35:56;;;;;;;1.83;1.20;;;3.90;99.90;;;;;;5081900;28;20032;-37
2023/11/29 08:38:23;;;;;;;4.28;3.33;;;3.90;99.90;;;;;;5083871;28;20032;-37
2023/11/29 08:40:50;;;;;;;1.75;1.63;;;3.80;99.90;;;;;;5082325;28;20070;-37
2023/11/29 08:43:15;;;;;;;4.82;2.13;;;3.80;99.90;;;;;;5083349;28;20067;-38
2023/11/29 08:45:41;;;;;;;3.35;2.10;;;3.70;99.90;;;;;;5082798;28;20458;-37
2023/11/29 08:48:06;;;;;;;3.20;1.73;;;3.60;99.90;;;;;;5082806;28;20020;-37
2023/11/29 08:50:32;;;;;;;3.55;2.03;;;3.60;99.90;;;;;;5082396;28;20115;-37
2023/11/29 08:52:57;;;;;;;2.60;1.85;;;3.60;99.90;;;;;;5081821;28;20024;-37
2023/11/29 08:55:24;;;;;;;2.03;1.80;;;3.50;99.90;;;;;;5075584;28;20131;-37
2023/11/29 08:57:51;;;;;;;2.92;1.50;;;3.50;99.90;;;;;;5075991;28;20024;-37
2023/11/29 09:00:20;;;;;;;1.83;1.67;;;3.50;99.90;;;;;;5077193;28;20492;-39
2023/11/29 09:02:46;;;;;;;4.43;2.13;;;3.50;99.90;;;;;;5074737;28;20024;-37
2023/11/29 09:05:12;;;;;;;2.88;1.55;;;3.50;99.90;;;;;;5078833;28;20031;-37
2023/11/29 09:07:37;;;;;;;2.38;1.83;;;3.50;99.90;;;;;;5072673;28;20035;-37
2023/11/29 09:10:05;;;;;;;3.53;1.60;;;3.50;99.90;;;;;;5078571;28;20020;-37
2023/11/29 09:12:31;;;;;;;1.73;1.40;;;3.50;99.90;;;;;;5073708;28;20743;-37
2023/11/29 09:14:59;;;;;;;1.63;1.50;;;3.50;99.90;;;;;;5062712;28;20025;-37
2023/11/29 09:17:25;;;;;;;3.42;1.50;;;3.50;99.90;;;;;;5071892;28;20056;-36
2023/11/29 09:19:57;;;;;;;2.78;1.60;;;3.50;99.90;;;;;;5060902;28;20140;-37
2023/11/29 09:22:22;;;;;;;2.15;1.50;;;3.50;99.90;;;;;;5074810;28;20032;-37
2023/11/29 09:24:51;;;;;;;2.05;1.50;;;3.50;99.90;;;;;;5061510;28;20106;-38
2023/11/29 09:27:17;;;;;;;2.38;1.30;;;3.60;99.90;;;;;;5074554;28;20058;-42
2023/11/29 09:29:43;;;;;;;1.75;1.48;;;3.60;99.90;;;;;;5062035;28;20020;-36
2023/11/29 09:32:09;;;;;;;2.10;1.73;;;3.60;99.90;;;;;;5072649;28;20271;-36
2023/11/29 09:34:36;;;;;;;2.13;1.60;;;3.70;99.90;;;;;;5062162;28;20029;-38
2023/11/29 09:37:01;;;;;;;3.13;1.83;;;3.70;99.90;;;;;;5070215;28;20374;-37
2023/11/29 09:39:28;;;;;;;5.50;1.98;;;3.80;99.90;;;;;;5064393;28;20535;-37
2023/11/29 09:41:58;;;;;;;2.70;1.88;;;3.80;99.90;;;;;;5067777;28;20585;-37
2023/11/29 09:44:27;;;;;;;2.42;1.95;;;3.90;99.90;;;;;;5066966;28;20135;-36
2023/11/29 09:46:53;;;;;;;5.43;2.10;;;3.90;99.90;;;;;;5064410;28;20029;-35
2023/11/29 09:49:20;;;;;;;2.17;1.65;;;3.90;99.90;;;;;;5074714;28;20867;-34
2023/11/29 09:51:46;;;;;;;2.13;1.65;;;4.00;99.90;;;;;;5079014;28;20036;-35
2023/11/29 09:54:12;;;;;;;3.05;1.85;;;4.00;99.90;;;;;;5070529;28;20040;-36
2023/11/29 09:56:44;;;;;;;2.65;2.03;;;4.00;99.90;;;;;;5079887;28;20030;-37
2023/11/29 09:59:10;;;;;;;3.90;1.90;;;4.00;99.90;;;;;;5069669;28;20108;-35
2023/11/29 10:01:37;;;;;;;2.85;2.17;;;4.10;99.90;;;;;;5080129;28;20069;-36
2023/11/29 10:04:08;;;;;;;3.30;2.20;;;4.10;99.90;;;;;;5068551;28;20107;-36
2023/11/29 10:06:34;;;;;;;4.53;2.20;;;4.10;99.90;;;;;;5079248;28;20034;-37
2023/11/29 10:09:11;;;;;;;3.97;2.42;;;4.10;99.90;;;;;;5067515;28;20028;-35
2023/11/29 10:11:37;;;;;;;5.32;2.50;;;4.10;99.90;;;;;;5080330;28;20016;-36
2023/11/29 10:14:05;;;;;;;3.38;2.15;;;4.10;99.90;;;;;;5065718;28;20020;-37
2023/11/29 10:16:32;;;;;;;2.38;1.88;;;4.20;99.90;;;;;;5079937;28;20105;-37
2023/11/29 10:19:00;;;;;;;2.55;1.90;;;4.20;99.90;;;;;;5066863;28;20470;-37
2023/11/29 10:21:26;;;;;;;2.10;1.90;;;4.20;99.90;;;;;;5080877;28;20040;-35
2023/11/29 10:23:51;;;;;;;2.25;1.98;;;4.30;99.90;;;;;;5068707;28;20012;-35
2023/11/29 10:26:17;;;;;;;3.22;2.22;;;4.30;99.90;;;;;;5080262;28;20113;-36
2023/11/29 10:28:46;;;;;;;2.92;1.80;;;4.30;99.90;;;;;;5071209;28;20016;-37
2023/11/29 10:31:13;;;;;;;2.35;1.80;;;4.40;99.90;;;;;;5077369;28;20122;-37
2023/11/29 10:33:42;;;;;;;1.60;1.30;;;4.40;99.90;;;;;;5076350;28;20046;-36
2023/11/29 10:36:08;;;;;;;2.67;1.73;;;4.40;99.90;;;;;;5063485;28;20750;-35
2023/11/29 10:38:42;;;;;;;3.08;1.90;;;4.40;99.90;;;;;;5064115;28;20501;-36
2023/11/29 10:41:13;;;;;;;2.88;1.83;;;4.50;99.90;;;;;;5067189;28;20120;-36
2023/11/29 10:43:41;;;;;;;1.70;1.60;;;4.50;99.90;;;;;;5062847;28;20757;-37
2023/11/29 10:46:25;;;;;;;3.83;1.90;;;4.50;99.90;;;;;;5066379;28;20025;-36
2023/11/29 10:49:16;;;;;;;2.13;1.20;;;4.50;99.90;;;;;;5062565;28;20023;-35
2023/11/29 10:51:45;;;;;;;1.70;1.60;;;4.50;99.90;;;;;;5064180;28;20034;-36
2023/11/29 10:54:12;;;;;;;4.65;2.40;;;4.50;99.90;;;;;;5064295;28;20062;-35
2023/11/29 10:56:40;;;;;;;4.90;2.00;;;4.50;99.90;;;;;;5065487;28;20036;-34
2023/11/29 10:59:20;;;;;;;1.70;1.60;;;4.50;99.90;;;;;;5063519;28;20040;-35
2023/11/29 11:01:46;;;;;;;1.70;1.55;;;4.50;99.90;;;;;;5067944;28;20090;-35
2023/11/29 11:04:12;;;;;;;1.83;1.70;;;4.50;99.90;;;;;;5062516;28;20119;-36
2023/11/29 11:06:41;;;;;;;3.20;1.70;;;4.50;99.90;;;;;;5070764;28;20357;-36
2023/11/29 11:09:30;;;;;;;2.55;1.67;;;4.50;99.90;;;;;;5061602;28;20012;-36
2023/11/29 11:11:58;;;;;;;3.83;1.70;;;4.50;99.90;;;;;;5063493;28;20027;-36
2023/11/29 11:14:30;;;;;;;3.63;2.28;;;4.50;99.90;;;;;;5079277;28;20169;-40
2023/11/29 11:17:03;;;;;;;2.88;1.70;;;4.50;99.90;;;;;;5069571;28;20024;-37
2023/11/29 11:19:42;;;;;;;1.90;1.70;;;4.50;99.90;;;;;;5078994;28;20020;-36
2023/11/29 11:22:11;;;;;;;2.03;1.75;;;4.50;99.90;;;;;;5060767;28;20506;-37
2023/11/29 11:25:07;;;;;;;2.85;2.03;;;4.60;99.90;;;;;;5078797;28;20027;-36
2023/11/29 11:27:38;;;;;;;1.85;1.55;;;4.60;99.90;;;;;;5065336;28;20576;-36
2023/11/29 11:30:13;;;;;;;2.55;1.65;;;4.60;99.90;;;;;;5076941;28;20651;-37
2023/11/29 11:32:41;;;;;;;3.20;2.00;;;4.60;99.90;;;;;;5070540;28;20616;-42
2023/11/29 11:35:21;;;;;;;2.38;1.67;;;4.70;99.90;;;;;;5077509;28;20542;-37
2023/11/29 11:37:55;;;;;;;1.88;1.60;;;4.60;99.90;;;;;;5070623;28;20761;-37
2023/11/29 11:40:23;;;;;;;2.42;1.58;;;4.70;99.90;;;;;;5077724;28;20684;-37
2023/11/29 11:42:52;;;;;;;3.20;1.65;;;4.70;99.90;;;;;;5069692;28;20070;-36
2023/11/29 11:45:18;;;;;;;1.95;1.67;;;4.80;99.90;;;;;;5077404;28;20093;-36
2023/11/29 11:47:47;;;;;;;2.58;1.60;;;4.80;99.90;;;;;;5068390;28;20016;-36
2023/11/29 11:50:13;;;;;;;1.60;1.40;;;4.80;99.90;;;;;;5082973;28;20097;-37
2023/11/29 11:52:39;;;;;;;4.57;1.70;;;4.90;99.90;;;;;;5071935;28;20020;-36
2023/11/29 11:55:10;;;;;;;2.15;1.40;;;4.90;99.90;;;;;;5083558;28;20044;-36
2023/11/29 11:57:39;;;;;;;2.72;1.50;;;5.00;99.90;;;;;;5070999;28;20019;-36
2023/11/29 12:00:06;;;;;;;1.60;1.50;;;5.00;99.90;;;;;;5082952;28;20032;-36
2023/11/29 12:02:32;;;;;;;3.00;1.95;;;5.00;99.90;;;;;;5070918;28;20017;-36
2023/11/29 12:04:58;;;;;;;1.58;1.30;;;5.00;99.90;;;;;;5083254;28;20032;-36
2023/11/29 12:07:24;;;;;;;2.53;1.85;;;5.10;99.90;;;;;;5070878;28;20027;-36
2023/11/29 12:09:51;;;;;;;2.78;2.00;;;5.10;99.90;;;;;;5083273;28;20758;-36
2023/11/29 12:12:17;;;;;;;2.88;1.50;;;5.10;99.90;;;;;;5073507;28;20032;-37
2023/11/29 12:14:47;;;;;;;2.70;1.83;;;5.20;99.90;;;;;;5080712;28;20031;-37
2023/11/29 12:17:14;;;;;;;1.60;1.50;;;5.20;99.90;;;;;;5075259;28;20036;-36
2023/11/29 12:19:41;;;;;;;3.53;1.80;;;5.20;99.90;;;;;;5078408;28;20538;-37
2023/11/29 12:22:07;;;;;;;3.42;1.70;;;5.20;99.90;;;;;;5081643;28;20042;-36
2023/11/29 12:24:46;;;;;;;2.53;1.65;;;5.20;99.90;;;;;;5069798;28;20021;-36
2023/11/29 12:27:19;;;;;;;3.03;1.70;;;5.30;99.90;;;;;;5066813;28;20034;-37
2023/11/29 12:29:46;;;;;;;2.25;1.67;;;5.30;99.90;;;;;;5069754;28;20025;-36
2023/11/29 12:32:12;;;;;;;2.78;1.75;;;5.30;99.90;;;;;;5065231;28;20796;-35
2023/11/29 12:34:38;;;;;;;3.42;1.88;;;5.40;99.90;;;;;;5072350;28;20055;-38
2023/11/29 12:37:05;;;;;;;2.58;1.60;;;5.40;99.90;;;;;;5064162;28;20616;-37
2023/11/29 12:39:33;;;;;;;2.00;1.48;;;5.40;99.90;;;;;;5073831;28;20165;-37
2023/11/29 12:42:05;;;;;;;2.33;1.70;;;5.50;99.90;;;;;;5062944;28;20080;-37
2023/11/29 12:44:34;;;;;;;;;;;5.50;99.90;;;;;;5074880;28;20021;-37
2023/11/29 12:47:00;;;;;;;1.77;1.35;;;5.50;99.90;;;;;;5062931;28;20575;-37
2023/11/29 12:49:26;;;;;;;2.00;1.80;;;5.50;99.90;;;;;;5073146;28;20112;-37
2023/11/29 12:51:51;;;;;;;2.45;1.60;;;5.50;99.90;;;;;;5062610;28;20131;-37
2023/11/29 12:54:17;;;;;;;1.77;1.58;;;5.40;99.90;;;;;;5074727;28;20083;-37
2023/11/29 12:56:43;;;;;;;3.47;1.73;;;5.40;99.90;;;;;;5062016;28;20035;-37